createdAt,value
2017-09-17T00:01:15.451Z,10.80
2017-09-17T00:03:42.889Z,10.80
2017-09-17T00:06:10.393Z,10.80
2017-09-17T00:08:37.832Z,10.80
2017-09-17T00:11:05.313Z,10.90
2017-09-17T00:13:32.756Z,10.90
2017-09-17T00:16:00.204Z,10.90
2017-09-17T00:18:27.671Z,10.90
2017-09-17T00:20:55.133Z,10.80
2017-09-17T00:23:22.664Z,10.70
2017-09-17T00:25:50.099Z,10.60
2017-09-17T00:28:17.551Z,10.50
2017-09-17T00:30:44.996Z,10.50
2017-09-17T00:33:12.464Z,10.60
2017-09-17T00:35:39.929Z,10.60
2017-09-17T00:38:07.368Z,10.50
2017-09-17T00:40:34.839Z,10.60
2017-09-17T00:43:02.280Z,10.60
2017-09-17T00:45:29.744Z,10.60
2017-09-17T00:47:57.180Z,10.50
2017-09-17T00:50:25.409Z,10.40
2017-09-17T00:52:52.891Z,10.30
2017-09-17T00:55:20.340Z,10.20
2017-09-17T00:57:47.779Z,10.20
2017-09-17T01:00:15.344Z,10.30
2017-09-17T01:02:42.792Z,10.30
2017-09-17T01:05:10.256Z,10.30
2017-09-17T01:07:37.713Z,10.30
2017-09-17T01:10:05.155Z,10.30
2017-09-17T01:12:32.604Z,10.30
2017-09-17T01:15:00.060Z,10.40
2017-09-17T01:17:27.520Z,10.20
2017-09-17T01:19:54.957Z,10.10
2017-09-17T01:22:22.419Z,10.00
2017-09-17T01:24:49.884Z,10.00
2017-09-17T01:27:17.347Z,10.10
2017-09-17T01:29:44.808Z,10.10
2017-09-17T01:32:12.257Z,10.10
2017-09-17T01:34:39.728Z,10.10
2017-09-17T01:37:07.165Z,10.10
2017-09-17T01:39:34.624Z,10.10
2017-09-17T01:42:02.088Z,10.00
2017-09-17T01:44:29.569Z,10.00
2017-09-17T01:46:57.007Z,10.00
2017-09-17T01:49:24.455Z,9.90
2017-09-17T01:51:51.913Z,9.90
2017-09-17T01:54:19.358Z,10.00
2017-09-17T01:56:46.795Z,9.90
2017-09-17T01:59:14.228Z,9.90
2017-09-17T02:01:42.445Z,9.90
2017-09-17T02:04:09.877Z,9.90
2017-09-17T02:06:37.333Z,10.00
2017-09-17T02:09:04.764Z,9.90
2017-09-17T02:11:32.989Z,9.90
2017-09-17T02:14:00.543Z,9.90
2017-09-17T02:16:27.994Z,10.00
2017-09-17T02:18:55.452Z,10.00
2017-09-17T02:21:22.886Z,10.00
2017-09-17T02:23:50.381Z,10.10
2017-09-17T02:26:17.882Z,10.10
2017-09-17T02:28:46.141Z,10.10
2017-09-17T02:31:13.618Z,10.10
2017-09-17T02:33:41.825Z,10.00
2017-09-17T02:36:09.294Z,10.00
2017-09-17T02:38:36.724Z,10.10
2017-09-17T02:41:04.185Z,10.10
2017-09-17T02:43:31.645Z,10.10
2017-09-17T02:45:59.084Z,9.90
2017-09-17T02:48:26.530Z,10.00
2017-09-17T02:50:55.045Z,10.00
2017-09-17T02:53:22.484Z,10.00
2017-09-17T02:55:50.011Z,10.10
2017-09-17T02:58:18.256Z,10.20
2017-09-17T03:00:45.702Z,10.20
2017-09-17T03:03:13.165Z,10.20
2017-09-17T03:05:40.620Z,10.20
2017-09-17T03:08:08.076Z,10.20
2017-09-17T03:10:35.520Z,10.20
2017-09-17T03:13:02.984Z,10.30
2017-09-17T03:15:31.189Z,10.20
2017-09-17T03:17:59.408Z,10.20
2017-09-17T03:20:26.852Z,10.20
2017-09-17T03:22:54.300Z,10.20
2017-09-17T03:25:22.379Z,10.20
2017-09-17T03:27:49.845Z,10.20
2017-09-17T03:30:17.306Z,10.20
2017-09-17T03:32:44.761Z,10.10
2017-09-17T03:35:12.324Z,10.10
2017-09-17T03:37:39.775Z,10.30
2017-09-17T03:40:07.213Z,10.30
2017-09-17T03:42:34.680Z,10.20
2017-09-17T03:45:02.339Z,10.20
2017-09-17T03:47:29.796Z,10.10
2017-09-17T03:49:58.110Z,10.10
2017-09-17T03:52:25.561Z,10.10
2017-09-17T03:54:53.015Z,10.20
2017-09-17T03:57:20.540Z,10.30
2017-09-17T03:59:48.008Z,10.20
2017-09-17T04:02:15.448Z,10.10
2017-09-17T04:04:42.907Z,10.20
2017-09-17T04:07:10.353Z,10.10
2017-09-17T04:09:37.932Z,10.20
2017-09-17T04:12:05.403Z,10.30
2017-09-17T04:14:32.847Z,10.30
2017-09-17T04:17:00.777Z,10.30
2017-09-17T04:19:28.988Z,10.30
2017-09-17T04:21:56.448Z,10.30
2017-09-17T04:24:23.885Z,10.20
2017-09-17T04:26:51.371Z,10.20
2017-09-17T04:29:19.580Z,10.00
2017-09-17T04:31:47.018Z,10.00
2017-09-17T04:34:14.525Z,10.00
2017-09-17T04:36:41.959Z,10.00
2017-09-17T04:39:10.189Z,10.10
2017-09-17T04:41:37.626Z,10.10
2017-09-17T04:44:05.072Z,10.10
2017-09-17T04:46:32.515Z,10.10
2017-09-17T04:49:00.100Z,10.10
2017-09-17T04:51:27.557Z,10.10
2017-09-17T04:53:55.022Z,10.10
2017-09-17T04:56:23.236Z,10.20
2017-09-17T04:58:51.444Z,10.20
2017-09-17T05:01:18.901Z,10.20
2017-09-17T05:03:46.363Z,10.20
2017-09-17T05:06:13.924Z,10.20
2017-09-17T05:08:41.355Z,10.20
2017-09-17T05:11:08.810Z,10.20
2017-09-17T05:13:37.031Z,10.30
2017-09-17T05:16:04.494Z,10.30
2017-09-17T05:18:31.935Z,10.20
2017-09-17T05:20:59.392Z,10.20
2017-09-17T05:23:26.848Z,10.20
2017-09-17T05:25:54.304Z,10.30
2017-09-17T05:28:21.740Z,10.40
2017-09-17T05:30:49.207Z,10.40
2017-09-17T05:33:16.655Z,10.40
2017-09-17T05:35:44.103Z,10.40
2017-09-17T05:38:11.565Z,10.30
2017-09-17T05:40:39.004Z,10.40
2017-09-17T05:43:06.469Z,10.40
2017-09-17T05:45:33.905Z,10.50
2017-09-17T05:48:02.131Z,10.40
2017-09-17T05:50:29.583Z,10.40
2017-09-17T05:52:57.029Z,10.40
2017-09-17T05:55:24.489Z,10.50
2017-09-17T05:57:51.977Z,10.60
2017-09-17T06:00:19.423Z,10.50
2017-09-17T06:02:46.864Z,10.50
2017-09-17T06:05:14.323Z,10.50
2017-09-17T06:07:41.773Z,10.50
2017-09-17T06:10:09.232Z,10.40
2017-09-17T06:12:36.681Z,10.20
2017-09-17T06:15:04.136Z,10.50
2017-09-17T06:17:31.616Z,10.50
2017-09-17T06:19:59.055Z,10.50
2017-09-17T06:22:26.505Z,10.40
2017-09-17T06:24:53.976Z,10.40
2017-09-17T06:27:21.424Z,10.40
2017-09-17T06:29:48.892Z,10.50
2017-09-17T06:32:16.338Z,10.40
2017-09-17T06:34:43.799Z,10.50
2017-09-17T06:37:11.236Z,10.70
2017-09-17T06:39:38.703Z,10.80
2017-09-17T06:42:06.277Z,10.70
2017-09-17T06:44:33.731Z,10.80
2017-09-17T06:47:01.185Z,11.00
2017-09-17T06:49:29.420Z,10.90
2017-09-17T06:51:56.883Z,11.00
2017-09-17T06:54:24.346Z,11.20
2017-09-17T06:56:51.792Z,11.20
2017-09-17T06:59:19.266Z,11.60
2017-09-17T07:01:46.725Z,11.60
2017-09-17T07:04:14.199Z,11.70
2017-09-17T07:06:41.645Z,11.80
2017-09-17T07:09:09.095Z,11.70
2017-09-17T07:11:36.548Z,11.40
2017-09-17T07:14:04.015Z,11.30
2017-09-17T07:16:31.495Z,11.30
2017-09-17T07:18:58.939Z,11.30
2017-09-17T07:21:26.494Z,11.30
2017-09-17T07:23:53.948Z,11.30
2017-09-17T07:26:21.395Z,11.40
2017-09-17T07:28:48.867Z,11.50
2017-09-17T07:31:16.333Z,11.60
2017-09-17T07:33:43.780Z,11.60
2017-09-17T07:36:11.234Z,11.70
2017-09-17T07:38:38.701Z,11.80
2017-09-17T07:41:06.160Z,11.80
2017-09-17T07:43:33.629Z,11.90
2017-09-17T07:46:01.866Z,11.80
2017-09-17T07:48:29.341Z,11.80
2017-09-17T07:50:56.801Z,11.70
2017-09-17T07:53:24.261Z,11.60
2017-09-17T07:55:51.741Z,11.60
2017-09-17T07:58:19.196Z,11.60
2017-09-17T08:00:47.420Z,11.70
2017-09-17T08:03:14.893Z,11.70
2017-09-17T08:05:42.365Z,11.80
2017-09-17T08:08:10.599Z,11.80
2017-09-17T08:10:38.050Z,11.80
2017-09-17T08:13:05.549Z,11.80
2017-09-17T08:15:32.992Z,11.70
2017-09-17T08:18:00.500Z,11.70
2017-09-17T08:20:27.973Z,11.60
2017-09-17T08:22:55.424Z,11.60
2017-09-17T08:25:22.886Z,11.70
2017-09-17T08:27:50.338Z,11.80
2017-09-17T08:30:17.803Z,11.80
2017-09-17T08:32:45.279Z,11.80
2017-09-17T08:35:12.732Z,11.90
2017-09-17T08:37:40.205Z,11.80
2017-09-17T08:40:07.660Z,11.80
2017-09-17T08:42:35.121Z,11.80
2017-09-17T08:45:02.585Z,11.80
2017-09-17T08:47:30.804Z,11.90
2017-09-17T08:49:58.280Z,11.90
2017-09-17T08:52:25.738Z,12.00
2017-09-17T08:54:53.225Z,12.10
2017-09-17T08:57:20.788Z,12.20
2017-09-17T08:59:49.040Z,12.60
2017-09-17T09:02:16.530Z,12.50
2017-09-17T09:04:44.748Z,12.80
2017-09-17T09:07:12.209Z,12.80
2017-09-17T09:09:39.709Z,13.00
2017-09-17T09:12:07.931Z,13.00
2017-09-17T09:14:35.395Z,13.00
2017-09-17T09:17:03.139Z,12.80
2017-09-17T09:19:30.614Z,12.70
2017-09-17T09:21:58.088Z,12.80
2017-09-17T09:24:25.572Z,12.70
2017-09-17T09:26:53.809Z,12.70
2017-09-17T09:29:21.261Z,12.70
2017-09-17T09:31:48.712Z,12.60
2017-09-17T09:34:16.182Z,12.60
2017-09-17T09:36:43.652Z,12.90
2017-09-17T09:39:11.126Z,13.20
2017-09-17T09:41:39.360Z,13.40
2017-09-17T09:44:06.836Z,13.40
2017-09-17T09:46:34.285Z,13.60
2017-09-17T09:49:01.757Z,14.00
2017-09-17T09:51:29.224Z,14.40
2017-09-17T09:53:57.446Z,14.70
2017-09-17T09:56:24.921Z,14.70
2017-09-17T09:58:52.396Z,15.10
2017-09-17T10:01:19.884Z,15.10
2017-09-17T10:03:48.109Z,15.00
2017-09-17T10:06:15.576Z,15.00
2017-09-17T10:08:43.044Z,14.90
2017-09-17T10:11:10.599Z,15.00
2017-09-17T10:13:38.078Z,14.90
2017-09-17T10:16:05.529Z,14.60
2017-09-17T10:18:33.776Z,15.30
2017-09-17T10:21:01.233Z,15.30
2017-09-17T10:23:28.679Z,15.50
2017-09-17T10:25:56.196Z,15.30
2017-09-17T10:28:23.652Z,15.30
2017-09-17T10:30:51.141Z,15.20
2017-09-17T10:33:18.576Z,15.00
2017-09-17T10:35:46.040Z,15.70
2017-09-17T10:38:13.504Z,16.50
2017-09-17T10:40:40.961Z,16.90
2017-09-17T10:43:08.455Z,16.90
2017-09-17T10:45:35.915Z,16.40
2017-09-17T10:48:03.393Z,16.20
2017-09-17T10:50:31.646Z,18.10
2017-09-17T10:52:59.097Z,18.00
2017-09-17T10:55:27.280Z,18.60
2017-09-17T10:57:55.532Z,18.00
2017-09-17T11:00:22.969Z,18.00
2017-09-17T11:02:51.188Z,16.70
2017-09-17T11:05:19.425Z,17.30
2017-09-17T11:07:46.871Z,17.30
2017-09-17T11:10:14.316Z,18.00
2017-09-17T11:12:41.768Z,18.70
2017-09-17T11:15:09.245Z,18.70
2017-09-17T11:17:37.249Z,18.50
2017-09-17T11:20:05.475Z,19.00
2017-09-17T11:22:32.942Z,18.90
2017-09-17T11:25:00.450Z,19.20
2017-09-17T11:27:28.697Z,19.90
2017-09-17T11:29:56.147Z,19.90
2017-09-17T11:32:23.623Z,20.10
2017-09-17T11:34:51.059Z,20.70
2017-09-17T11:37:18.541Z,20.30
2017-09-17T11:39:46.008Z,20.50
2017-09-17T11:42:14.256Z,20.90
2017-09-17T11:44:41.712Z,20.90
2017-09-17T11:47:09.172Z,20.70
2017-09-17T11:49:36.613Z,20.40
2017-09-17T11:52:04.071Z,19.80
2017-09-17T11:54:31.528Z,19.00
2017-09-17T11:56:58.977Z,18.30
2017-09-17T11:59:27.226Z,20.20
2017-09-17T12:01:54.694Z,20.20
2017-09-17T12:04:22.186Z,20.60
2017-09-17T12:06:49.617Z,21.20
2017-09-17T12:09:17.077Z,21.40
2017-09-17T12:11:45.398Z,21.30
2017-09-17T12:14:13.708Z,22.00
2017-09-17T12:16:41.157Z,21.90
2017-09-17T12:19:09.382Z,22.30
2017-09-17T12:21:36.826Z,22.20
2017-09-17T12:24:04.884Z,22.40
2017-09-17T12:26:32.339Z,22.50
2017-09-17T12:28:59.777Z,22.20
2017-09-17T12:31:27.248Z,22.00
2017-09-17T12:33:54.740Z,21.70
2017-09-17T12:36:22.224Z,21.50
2017-09-17T12:38:49.669Z,21.10
2017-09-17T12:41:17.123Z,21.10
2017-09-17T12:43:45.369Z,21.40
2017-09-17T12:46:12.817Z,21.40
2017-09-17T12:48:40.304Z,21.30
2017-09-17T12:51:08.553Z,21.90
2017-09-17T12:53:36.013Z,21.90
2017-09-17T12:56:03.458Z,22.50
2017-09-17T12:58:30.924Z,22.00
2017-09-17T13:00:58.375Z,22.10
2017-09-17T13:03:25.826Z,22.30
2017-09-17T13:05:54.078Z,22.40
2017-09-17T13:08:21.533Z,22.40
2017-09-17T13:10:49.016Z,21.80
2017-09-17T13:13:16.489Z,21.80
2017-09-17T13:15:43.977Z,21.60
2017-09-17T13:18:11.453Z,22.10
2017-09-17T13:20:39.913Z,22.00
2017-09-17T13:23:07.366Z,21.30
2017-09-17T13:25:34.804Z,20.70
2017-09-17T13:28:03.033Z,21.50
2017-09-17T13:30:30.463Z,21.50
2017-09-17T13:32:58.016Z,21.30
2017-09-17T13:35:25.501Z,21.30
2017-09-17T13:37:52.964Z,21.20
2017-09-17T13:40:20.424Z,21.80
2017-09-17T13:42:47.929Z,21.80
2017-09-17T13:45:16.141Z,22.20
2017-09-17T13:47:43.636Z,22.20
2017-09-17T13:50:11.088Z,21.40
2017-09-17T13:52:38.531Z,21.10
2017-09-17T13:55:06.037Z,21.60
2017-09-17T13:57:33.487Z,21.60
2017-09-17T14:00:03.185Z,21.70
2017-09-17T14:02:32.164Z,21.70
2017-09-17T14:05:01.385Z,22.00
2017-09-17T14:07:29.624Z,22.50
2017-09-17T14:09:57.114Z,22.50
2017-09-17T14:12:25.369Z,21.80
2017-09-17T14:14:52.803Z,21.80
2017-09-17T14:17:21.021Z,22.40
2017-09-17T14:19:49.225Z,23.00
2017-09-17T14:22:16.668Z,23.00
2017-09-17T14:24:44.147Z,23.20
2017-09-17T14:27:11.681Z,22.40
2017-09-17T14:29:39.144Z,22.10
2017-09-17T14:32:06.596Z,22.70
2017-09-17T14:34:34.069Z,23.10
2017-09-17T14:37:01.525Z,22.90
2017-09-17T14:39:28.979Z,22.20
2017-09-17T14:41:56.423Z,22.20
2017-09-17T14:44:23.936Z,22.10
2017-09-17T14:46:51.899Z,21.80
2017-09-17T14:49:19.357Z,20.80
2017-09-17T14:51:46.796Z,19.90
2017-09-17T14:54:14.262Z,19.40
2017-09-17T14:56:41.741Z,19.00
2017-09-17T14:59:10.043Z,18.00
2017-09-17T15:01:37.516Z,18.00
2017-09-17T15:04:04.961Z,17.80
2017-09-17T15:06:32.404Z,17.90
2017-09-17T15:08:59.869Z,17.90
2017-09-17T15:11:27.333Z,17.90
2017-09-17T15:13:54.788Z,17.80
2017-09-17T15:16:22.232Z,17.60
2017-09-17T15:18:49.766Z,17.30
2017-09-17T15:21:17.973Z,17.00
2017-09-17T15:23:45.421Z,17.00
2017-09-17T15:26:12.885Z,17.00
2017-09-17T15:28:40.340Z,16.80
2017-09-17T15:31:07.787Z,16.90
2017-09-17T15:33:35.255Z,16.30
2017-09-17T15:36:02.729Z,16.30
2017-09-17T15:38:30.227Z,16.30
2017-09-17T15:40:58.541Z,16.30
2017-09-17T15:43:25.982Z,16.30
2017-09-17T15:45:53.471Z,16.30
2017-09-17T15:48:21.696Z,15.70
2017-09-17T15:50:49.902Z,15.60
2017-09-17T15:53:17.369Z,15.50
2017-09-17T15:55:44.819Z,15.50
2017-09-17T15:58:12.349Z,15.50
2017-09-17T16:00:40.600Z,15.30
2017-09-17T16:03:08.097Z,15.30
2017-09-17T16:05:36.289Z,15.10
2017-09-17T16:08:03.762Z,15.10
2017-09-17T16:10:31.219Z,15.20
2017-09-17T16:12:58.673Z,15.40
2017-09-17T16:15:26.666Z,15.20
2017-09-17T16:17:54.125Z,15.20
2017-09-17T16:20:21.568Z,15.20
2017-09-17T16:22:49.020Z,14.90
2017-09-17T16:25:16.480Z,14.90
2017-09-17T16:27:43.929Z,14.90
2017-09-17T16:30:11.460Z,14.90
2017-09-17T16:32:38.939Z,14.90
2017-09-17T16:35:06.565Z,14.90
2017-09-17T16:37:34.037Z,14.70
2017-09-17T16:40:01.507Z,14.70
2017-09-17T16:42:28.951Z,14.80
2017-09-17T16:44:56.416Z,14.80
2017-09-17T16:47:23.870Z,14.70
2017-09-17T16:49:51.333Z,14.60
2017-09-17T16:52:19.551Z,14.80
2017-09-17T16:54:47.797Z,14.80
2017-09-17T16:57:15.252Z,14.80
2017-09-17T16:59:42.710Z,14.90
2017-09-17T17:02:10.204Z,14.90
2017-09-17T17:04:37.670Z,14.90
2017-09-17T17:07:05.166Z,14.90
2017-09-17T17:09:32.612Z,14.90
2017-09-17T17:12:00.066Z,14.90
2017-09-17T17:14:27.529Z,14.60
2017-09-17T17:16:55.000Z,14.30
2017-09-17T17:19:22.458Z,14.10
2017-09-17T17:21:49.922Z,14.30
2017-09-17T17:24:17.397Z,14.40
2017-09-17T17:26:44.894Z,14.30
2017-09-17T17:29:12.361Z,14.30
2017-09-17T17:31:39.828Z,14.40
2017-09-17T17:34:07.276Z,14.50
2017-09-17T17:36:34.756Z,14.40
2017-09-17T17:39:02.208Z,14.40
2017-09-17T17:41:29.681Z,14.40
2017-09-17T17:43:57.122Z,14.30
2017-09-17T17:46:24.592Z,14.20
2017-09-17T17:48:52.099Z,14.00
2017-09-17T17:51:19.563Z,13.80
2017-09-17T17:53:47.004Z,13.90
2017-09-17T17:56:14.465Z,13.90
2017-09-17T17:58:41.929Z,13.80
2017-09-17T18:01:09.384Z,13.80
2017-09-17T18:03:36.879Z,13.50
2017-09-17T18:06:04.328Z,13.30
2017-09-17T18:08:31.788Z,13.40
2017-09-17T18:10:59.978Z,13.40
2017-09-17T18:13:27.421Z,13.50
2017-09-17T18:15:54.894Z,13.50
2017-09-17T18:18:23.116Z,13.30
2017-09-17T18:20:50.638Z,13.30
2017-09-17T18:23:18.862Z,13.20
2017-09-17T18:25:46.321Z,13.20
2017-09-17T18:28:13.782Z,13.10
2017-09-17T18:30:41.262Z,13.30
2017-09-17T18:33:08.732Z,13.30
2017-09-17T18:35:36.970Z,13.30
2017-09-17T18:38:04.480Z,13.20
2017-09-17T18:40:31.958Z,13.10
2017-09-17T18:42:59.428Z,13.10
2017-09-17T18:45:27.662Z,13.20
2017-09-17T18:47:55.128Z,13.20
2017-09-17T18:50:28.369Z,13.20
2017-09-17T18:52:55.906Z,13.20
2017-09-17T18:55:23.432Z,13.00
2017-09-17T18:57:50.938Z,12.90
2017-09-17T19:00:18.399Z,12.80
2017-09-17T19:02:45.844Z,12.80
2017-09-17T19:05:13.312Z,12.80
2017-09-17T19:07:40.784Z,12.80
2017-09-17T19:10:09.000Z,12.70
2017-09-17T19:12:36.490Z,12.70
2017-09-17T19:15:03.933Z,12.60
2017-09-17T19:17:32.196Z,12.50
2017-09-17T19:20:00.424Z,12.40
2017-09-17T19:22:28.689Z,12.40
2017-09-17T19:24:56.241Z,12.40
2017-09-17T19:27:23.712Z,12.40
2017-09-17T19:29:51.947Z,12.50
2017-09-17T19:32:19.410Z,12.50
2017-09-17T19:34:46.904Z,12.40
2017-09-17T19:37:15.150Z,12.40
2017-09-17T19:39:42.622Z,12.40
2017-09-17T19:42:10.081Z,12.30
2017-09-17T19:44:38.358Z,12.10
2017-09-17T19:47:06.785Z,12.10
2017-09-17T19:49:34.232Z,12.10
2017-09-17T19:52:01.703Z,12.10
2017-09-17T19:54:29.191Z,12.30
2017-09-17T19:56:56.673Z,12.30
2017-09-17T19:59:24.912Z,12.20
2017-09-17T20:01:52.349Z,12.20
2017-09-17T20:04:19.827Z,12.20
2017-09-17T20:06:47.350Z,12.20
2017-09-17T20:09:14.925Z,12.20
2017-09-17T20:11:42.369Z,12.30
2017-09-17T20:14:09.841Z,12.20
2017-09-17T20:16:37.293Z,12.10
2017-09-17T20:19:04.770Z,12.00
2017-09-17T20:21:32.244Z,11.90
2017-09-17T20:23:59.704Z,12.10
2017-09-17T20:26:27.947Z,12.20
2017-09-17T20:28:55.428Z,12.20
2017-09-17T20:31:23.649Z,12.10
2017-09-17T20:33:51.093Z,12.10
2017-09-17T20:36:18.560Z,12.10
2017-09-17T20:38:46.098Z,12.10
2017-09-17T20:41:13.564Z,12.10
2017-09-17T20:43:41.013Z,12.10
2017-09-17T20:46:08.861Z,12.00
2017-09-17T20:48:37.061Z,11.90
2017-09-17T20:51:04.528Z,11.90
2017-09-17T20:53:31.970Z,11.80
2017-09-17T20:55:59.408Z,11.70
2017-09-17T20:58:27.653Z,11.70
2017-09-17T21:00:55.134Z,11.70
2017-09-17T21:03:23.373Z,11.60
2017-09-17T21:05:50.929Z,11.60
2017-09-17T21:08:18.398Z,11.60
2017-09-17T21:10:45.838Z,11.60
2017-09-17T21:13:13.319Z,11.50
2017-09-17T21:15:40.788Z,11.50
2017-09-17T21:18:08.260Z,11.60
2017-09-17T21:20:36.509Z,11.40
2017-09-17T21:23:04.077Z,11.40
2017-09-17T21:25:32.315Z,11.40
2017-09-17T21:28:03.672Z,11.30
2017-09-17T21:30:31.138Z,11.40
2017-09-17T21:32:58.631Z,11.40
2017-09-17T21:35:26.079Z,11.40
2017-09-17T21:37:54.732Z,11.20
2017-09-17T21:40:22.188Z,11.20
2017-09-17T21:42:49.656Z,11.20
2017-09-17T21:45:17.092Z,11.10
2017-09-17T21:47:44.555Z,11.10
2017-09-17T21:50:12.020Z,11.00
2017-09-17T21:52:39.515Z,10.90
2017-09-17T21:55:06.962Z,10.90
2017-09-17T21:57:35.220Z,11.00
2017-09-17T22:00:03.468Z,11.00
2017-09-17T22:02:30.921Z,11.00
2017-09-17T22:04:58.381Z,11.00
2017-09-17T22:07:25.815Z,11.00
2017-09-17T22:09:53.268Z,11.00
2017-09-17T22:12:20.734Z,11.00
2017-09-17T22:14:48.179Z,11.00
2017-09-17T22:17:15.645Z,10.90
2017-09-17T22:19:43.103Z,10.80
2017-09-17T22:22:10.575Z,10.80
2017-09-17T22:24:38.016Z,10.80
2017-09-17T22:27:05.472Z,10.80
2017-09-17T22:29:32.918Z,10.70
2017-09-17T22:32:00.380Z,10.80
2017-09-17T22:34:27.819Z,10.70
2017-09-17T22:36:55.289Z,10.70
2017-09-17T22:39:22.835Z,10.70
2017-09-17T22:41:50.272Z,10.60
2017-09-17T22:44:17.736Z,10.60
2017-09-17T22:46:45.177Z,10.60
2017-09-17T22:49:13.415Z,10.40
2017-09-17T22:51:40.858Z,10.40
2017-09-17T22:54:08.424Z,10.30
2017-09-17T22:56:35.997Z,10.10
2017-09-17T22:59:03.440Z,10.20
2017-09-17T23:01:31.529Z,10.30
2017-09-17T23:03:59.016Z,10.40
2017-09-17T23:06:26.453Z,10.30
2017-09-17T23:08:54.652Z,10.20
2017-09-17T23:11:22.216Z,10.20
2017-09-17T23:13:49.820Z,10.20
2017-09-17T23:16:17.288Z,10.20
2017-09-17T23:18:44.731Z,10.40
2017-09-17T23:21:12.296Z,10.30
2017-09-17T23:23:39.756Z,10.40
2017-09-17T23:26:07.196Z,10.40
2017-09-17T23:28:34.652Z,10.20
2017-09-17T23:31:02.090Z,10.00
2017-09-17T23:33:29.555Z,10.10
2017-09-17T23:35:57.027Z,10.20
2017-09-17T23:38:24.489Z,10.10
2017-09-17T23:40:51.936Z,10.20
2017-09-17T23:43:19.397Z,10.20
2017-09-17T23:45:46.875Z,10.20
2017-09-17T23:48:15.104Z,10.30
2017-09-17T23:50:42.546Z,10.30
2017-09-17T23:53:09.991Z,10.30
2017-09-17T23:55:37.439Z,10.30
2017-09-17T23:58:04.883Z,10.20
